Flight Number: AVA4001 Duration: 0:45
Departure: Tioman Island (WMBT) at 01:00 Distance: 147.095 Nm
Arrival: Sepang Kuala Lumpur Intl (WMKK) at 01:45 Equipment: ATR72

Weather Information
404 Not Found

Not Found

The requested URL /data/observations/metar/decoded/WMBT.TXT was not found on this server.


Sunrise: 23:00 Sunset: 11:06 (UTC)

Sepang/KL International Airport, Malaysia (WMKK) 02-44N 101-42E 22M Apr 14, 2024 - 10:30 PM EDT / 2024.04.15 0230 UTC
Wind: Variable at 3 MPH (3 KT):0
Visibility: greater than 7 mile(s):0
Sky conditions: mostly clear Weather: Cumulonimbus clouds observed Temperature: 89 F (32 C) Heat index: 100.6 F (38.1 C):1 Dew Point: 77 F (25 C) Relative Humidity: 66% Pressure (altimeter): 29.85 in. Hg (1011 hPa)
ob: WMKK 150230Z VRB03KT 9999 FEW017CB 32/25 Q1011 NOSIG cycle: 2
Sunrise: 23:09 Sunset: 11:16 (UTC)

TAF:2024/04/14 18:08 TAF WMKK 141700Z 1418/1600 VRB02KT 9999 SCT030 TEMPO 1507/1511 35008KT 4000 TSRA FEW017CB SCT018

This route has never been flown.

Route map